Time;durP1;ratioP1;P1;durP2;ratioP2;P2;SDS_P1;SDS_P2;PMS_P1;PMS_P2;Temp;Humidity;BMP_temperature;BMP_pressure;BME280_temperature;BME280_humidity;BME280_pressure;Samples;Min_cycle;Max_cycle;Signal;HPM_P1;HPM_P2
2023/05/24 00:00:36;;;;;;;12.10;6.25;;;;;;;23.31;62.26;97859.87;4471905;32;20135;-81
2023/05/24 00:03:04;;;;;;;11.15;5.68;;;;;;;22.57;66.26;97860.84;4472445;32;20586;-80
2023/05/24 00:05:31;;;;;;;12.43;5.90;;;;;;;22.41;66.99;97861.44;4472508;32;20086;-81
2023/05/24 00:07:58;;;;;;;11.35;5.90;;;;;;;21.89;69.55;97858.34;4472119;32;20363;-81
2023/05/24 00:10:25;;;;;;;12.30;5.37;;;;;;;22.27;67.43;97853.19;4472300;32;20149;-80
2023/05/24 00:12:52;;;;;;;11.88;6.25;;;;;;;22.36;67.31;97857.59;4472281;32;20104;-80
2023/05/24 00:15:19;;;;;;;11.43;6.12;;;;;;;21.81;69.76;97860.06;4472037;32;20152;-80
2023/05/24 00:17:46;;;;;;;12.25;5.68;;;;;;;22.61;66.07;97854.28;4472402;32;20092;-80
2023/05/24 00:20:13;;;;;;;12.52;6.35;;;;;;;22.69;65.85;97853.56;4471717;32;20091;-81
2023/05/24 00:22:41;;;;;;;11.07;6.00;;;;;;;23.13;63.31;97851.13;4472261;32;20088;-80
2023/05/24 00:25:08;;;;;;;14.85;6.25;;;;;;;22.99;63.82;97850.66;4472192;32;20092;-80
2023/05/24 00:27:36;;;;;;;14.57;6.50;;;;;;;22.61;64.97;97848.22;4471955;32;20130;-81
2023/05/24 00:30:04;;;;;;;12.23;6.20;;;;;;;22.98;63.19;97848.19;4472142;32;20112;-80
2023/05/24 00:32:31;;;;;;;14.57;6.68;;;;;;;22.34;65.71;97855.12;4472155;32;20389;-80
2023/05/24 00:34:58;;;;;;;16.08;7.40;;;;;;;23.31;61.94;97852.81;4471816;32;20118;-81
2023/05/24 00:37:26;;;;;;;11.43;6.18;;;;;;;23.47;60.80;97854.75;4472144;32;20407;-80
2023/05/24 00:39:53;;;;;;;13.88;6.87;;;;;;;23.59;60.15;97852.72;4458001;32;20112;-80
2023/05/24 00:42:20;;;;;;;15.13;6.95;;;;;;;23.64;59.89;97847.84;4471887;32;20080;-81
2023/05/24 00:44:46;;;;;;;11.95;6.53;;;;;;;23.56;60.08;97853.84;4472104;32;20145;-80
2023/05/24 00:47:15;;;;;;;12.50;6.80;;;;;;;22.68;63.11;97858.00;4472072;32;20156;-80
2023/05/24 00:49:42;;;;;;;13.27;7.12;;;;;;;22.96;62.88;97850.13;4471551;32;20160;-81
2023/05/24 00:52:09;;;;;;;13.00;6.70;;;;;;;23.12;62.43;97858.19;4471998;32;20140;-80
2023/05/24 00:54:36;;;;;;;17.00;7.80;;;;;;;22.26;65.61;97854.16;4472076;32;20114;-80
2023/05/24 00:57:03;;;;;;;13.95;7.03;;;;;;;21.85;68.37;97845.66;4471838;32;20092;-80
2023/05/24 00:59:30;;;;;;;14.05;7.35;;;;;;;21.84;68.90;97854.50;4472010;32;20092;-80
2023/05/24 01:01:57;;;;;;;12.57;7.10;;;;;;;22.46;65.30;97856.59;4472023;32;20132;-80
2023/05/24 01:04:24;;;;;;;14.57;7.65;;;;;;;23.22;61.45;97855.50;4471773;32;20160;-80
2023/05/24 01:07:29;;;;;;;13.55;7.62;;;;;;;22.96;62.40;97853.56;4471987;32;20407;-80
2023/05/24 01:10:31;;;;;;;14.50;7.28;;;;;;;21.78;67.82;97860.31;4410135;32;20101;-80
2023/05/24 01:13:01;;;;;;;15.20;8.23;;;;;;;21.41;70.07;97865.47;4469004;32;20069;-80
2023/05/24 01:15:51;;;;;;;15.63;8.18;;;;;;;22.17;67.01;97855.84;4471696;32;20367;-80
2023/05/24 01:18:57;;;;;;;20.85;8.90;;;;;;;21.36;70.86;97868.47;4471579;32;20080;-80
2023/05/24 01:21:56;;;;;;;15.85;8.65;;;;;;;21.54;70.93;97861.59;4423100;32;20272;-80
2023/05/24 01:24:31;;;;;;;14.38;8.40;;;;;;;22.31;67.64;97860.63;4422863;32;20100;-81
2023/05/24 01:27:06;;;;;;;15.60;8.55;;;;;;;22.66;65.88;97856.50;4446439;32;20145;-80
2023/05/24 01:29:35;;;;;;;17.08;8.30;;;;;;;22.45;66.60;97852.31;4457916;32;20100;-80
2023/05/24 01:32:02;;;;;;;15.88;8.63;;;;;;;21.95;68.66;97849.09;4470474;32;20155;-81
2023/05/24 01:34:29;;;;;;;15.25;8.27;;;;;;;22.47;67.01;97842.47;4471831;32;20145;-80
2023/05/24 01:36:56;;;;;;;13.43;7.47;;;;;;;21.83;69.93;97840.56;4471744;32;20105;-80
2023/05/24 01:39:26;;;;;;;15.30;8.10;;;;;;;22.87;65.04;97848.41;4471272;32;20112;-80
2023/05/24 01:42:02;;;;;;;15.00;7.40;;;;;;;23.23;61.97;97844.81;4457776;32;20124;-80
2023/05/24 01:44:38;;;;;;;16.48;8.07;;;;;;;23.20;62.13;97839.88;4471438;32;20085;-81
2023/05/24 01:47:26;;;;;;;16.85;8.35;;;;;;;23.04;63.03;97837.06;4457753;32;20112;-80
2023/05/24 01:49:56;;;;;;;15.20;8.20;;;;;;;22.40;65.23;97832.66;4471684;32;20145;-80
2023/05/24 01:52:27;;;;;;;14.02;7.70;;;;;;;21.65;68.58;97832.56;4457156;32;20088;-80
2023/05/24 01:54:55;;;;;;;15.93;8.73;;;;;;;22.25;67.07;97823.63;4471726;32;20099;-80
2023/05/24 01:57:24;;;;;;;15.82;8.20;;;;;;;22.35;66.15;97830.47;4471589;32;20420;-80
2023/05/24 01:59:53;;;;;;;17.12;9.32;;;;;;;21.30;70.49;97827.88;4456925;32;20124;-80
2023/05/24 02:02:20;;;;;;;14.80;8.50;;;;;;;22.21;66.36;97828.31;4471681;32;20102;-80
2023/05/24 02:04:47;;;;;;;14.45;8.23;;;;;;;22.49;64.80;97831.81;4471499;32;20502;-80
2023/05/24 02:07:14;;;;;;;15.80;8.18;;;;;;;22.11;66.15;97832.75;4457039;32;20160;-80
2023/05/24 02:09:41;;;;;;;16.37;9.02;;;;;;;21.79;67.60;97828.66;4471339;32;20564;-80
2023/05/24 02:12:09;;;;;;;14.80;8.20;;;;;;;21.32;70.61;97830.38;4471292;32;20084;-80
2023/05/24 02:14:36;;;;;;;17.87;9.18;;;;;;;21.55;69.69;97831.72;4471438;32;20092;-80
2023/05/24 02:17:04;;;;;;;18.42;8.52;;;;;;;21.45;69.91;97830.91;4471377;32;20085;-80
2023/05/24 02:19:33;;;;;;;16.25;9.45;;;;;;;21.36;71.11;97831.72;4470821;32;20092;-80
2023/05/24 02:22:00;;;;;;;19.08;9.35;;;;;;;21.55;70.15;97830.91;4471361;32;20597;-80
2023/05/24 02:24:27;;;;;;;16.27;9.25;;;;;;;21.23;72.25;97839.84;4471259;32;20080;-80
2023/05/24 02:26:54;;;;;;;16.75;10.00;;;;;;;21.33;72.09;97845.97;4470830;32;20491;-80
2023/05/24 02:29:22;;;;;;;15.77;9.27;;;;;;;20.51;76.26;97845.34;4471055;32;20105;-80
2023/05/24 02:31:53;;;;;;;18.27;10.43;;;;;;;20.41;77.70;97844.44;4470959;32;20159;-80
2023/05/24 02:34:22;;;;;;;20.33;10.98;;;;;;;19.83;81.50;97837.13;4470735;32;20073;-80
2023/05/24 02:36:50;;;;;;;20.98;11.80;;;;;;;20.12;81.30;97842.53;4471075;32;20107;-80
2023/05/24 02:39:16;;;;;;;19.48;11.45;;;;;;;20.18;80.87;97841.19;4470939;32;20147;-80
2023/05/24 02:41:43;;;;;;;22.10;12.52;;;;;;;19.76;82.90;97830.75;4470875;32;20406;-80
2023/05/24 02:44:10;;;;;;;20.33;11.20;;;;;;;18.64;89.04;97838.97;4473111;32;20424;-80
2023/05/24 02:46:37;;;;;;;21.87;11.75;;;;;;;18.86;89.93;97840.72;4472987;32;20108;-80
2023/05/24 02:49:04;;;;;;;22.95;13.27;;;;;;;18.81;90.17;97837.63;4472435;32;20153;-80
2023/05/24 02:51:32;;;;;;;21.62;12.95;;;;;;;19.15;88.64;97835.78;4472928;32;20378;-80
2023/05/24 02:53:59;;;;;;;21.98;12.60;;;;;;;19.69;85.51;97845.31;4472895;32;20126;-80
2023/05/24 02:56:27;;;;;;;23.38;12.73;;;;;;;19.94;82.87;97839.69;4472462;32;20109;-80
2023/05/24 02:58:55;;;;;;;20.80;11.98;;;;;;;19.34;86.29;97837.69;4472799;32;20101;-80
2023/05/24 03:01:22;;;;;;;21.40;12.15;;;;;;;19.21;87.17;97840.50;4472529;32;20080;-81
2023/05/24 03:03:49;;;;;;;21.35;12.48;;;;;;;18.98;89.98;97844.13;4472867;32;20441;-80
2023/05/24 03:06:16;;;;;;;21.77;12.73;;;;;;;18.87;90.06;97846.78;4472841;32;20097;-80
2023/05/24 03:08:43;;;;;;;21.75;12.95;;;;;;;18.90;91.23;97846.53;4472319;32;20163;-79
2023/05/24 03:11:10;;;;;;;22.62;13.18;;;;;;;18.70;91.84;97843.69;4472966;32;20098;-80
2023/05/24 03:13:37;;;;;;;23.45;14.00;;;;;;;18.78;91.10;97845.72;4472714;32;20551;-80
2023/05/24 03:16:05;;;;;;;23.05;13.20;;;;;;;18.36;94.23;97837.66;4472211;32;20124;-80
2023/05/24 03:18:32;;;;;;;24.05;13.38;;;;;;;18.98;90.79;97844.97;4472735;32;20107;-80
2023/05/24 03:20:58;;;;;;;23.90;13.52;;;;;;;19.34;87.96;97850.78;4472612;32;20128;-80
2023/05/24 03:23:25;;;;;;;24.67;13.35;;;;;;;19.09;90.67;97844.09;4472378;32;20108;-80
2023/05/24 03:25:52;;;;;;;21.23;12.27;;;;;;;19.40;88.08;97859.94;4472691;32;20137;-80
2023/05/24 03:28:21;;;;;;;22.10;12.73;;;;;;;19.47;87.72;97851.47;4472561;32;20476;-80
2023/05/24 03:30:48;;;;;;;19.92;11.48;;;;;;;18.85;90.61;97859.13;4472275;32;20156;-80
2023/05/24 03:33:15;;;;;;;24.33;12.65;;;;;;;18.98;91.34;97865.03;4472505;32;20131;-80
2023/05/24 03:35:42;;;;;;;23.02;11.68;;;;;;;19.72;84.97;97873.03;4472600;32;20152;-80
2023/05/24 03:38:09;;;;;;;21.50;11.65;;;;;;;19.69;84.63;97879.34;4472214;32;20111;-79
2023/05/24 03:40:37;;;;;;;23.73;13.25;;;;;;;19.69;84.39;97878.53;4472559;32;20151;-80
2023/05/24 03:43:04;;;;;;;22.13;12.57;;;;;;;19.18;86.24;97876.53;4472532;32;20238;-80
2023/05/24 03:45:31;;;;;;;20.25;11.57;;;;;;;19.64;82.99;97871.84;4472134;32;20158;-80
2023/05/24 03:48:05;;;;;;;20.02;11.45;;;;;;;20.13;80.55;97888.72;4472710;32;20107;-80
2023/05/24 03:50:32;;;;;;;20.77;12.00;;;;;;;20.17;80.92;97890.13;4472115;32;20085;-81
2023/05/24 03:52:59;;;;;;;21.45;12.02;;;;;;;19.91;82.21;97888.88;4472309;32;20112;-80
2023/05/24 03:55:26;;;;;;;20.20;12.02;;;;;;;20.35;79.41;97882.50;4472025;32;20108;-80
2023/05/24 03:57:53;;;;;;;24.23;12.50;;;;;;;20.06;81.56;97884.13;4472143;32;20096;-81
2023/05/24 04:00:20;;;;;;;20.12;11.98;;;;;;;21.02;75.28;97894.22;4472351;32;20109;-80
2023/05/24 04:02:47;;;;;;;18.98;11.27;;;;;;;21.41;73.59;97894.31;4472435;32;20431;-80
2023/05/24 04:05:14;;;;;;;19.45;11.02;;;;;;;21.02;74.37;97897.66;4472100;32;20108;-81
2023/05/24 04:07:42;;;;;;;19.60;11.48;;;;;;;20.86;75.67;97892.13;4472398;32;20570;-81
2023/05/24 04:10:09;;;;;;;16.92;10.20;;;;;;;21.32;73.38;97894.19;4472198;32;20586;-82
2023/05/24 04:12:36;;;;;;;18.62;10.30;;;;;;;21.57;71.30;97897.22;4471887;32;20427;-81
2023/05/24 04:15:03;;;;;;;17.50;9.82;;;;;;;22.10;68.96;97897.63;4472108;32;20125;-80
2023/05/24 04:17:33;;;;;;;18.85;10.07;;;;;;;22.37;67.46;97906.56;4472424;32;20119;-80
2023/05/24 04:20:02;;;;;;;16.45;9.90;;;;;;;21.78;69.57;97904.97;4471877;32;20101;-81
2023/05/24 04:22:29;;;;;;;18.98;10.15;;;;;;;21.79;69.46;97906.63;4472342;32;20077;-80
2023/05/24 04:24:56;;;;;;;15.75;10.05;;;;;;;22.00;68.08;97901.19;4472258;32;20141;-80
2023/05/24 04:27:24;;;;;;;16.90;9.70;;;;;;;21.91;68.78;97903.72;4471998;32;20445;-81
2023/05/24 04:29:52;;;;;;;20.05;9.60;;;;;;;21.97;68.16;97902.31;4472185;32;20167;-80
2023/05/24 04:32:19;;;;;;;16.20;9.43;;;;;;;22.35;65.78;97903.25;4472130;32;20097;-80
2023/05/24 04:34:46;;;;;;;18.67;9.13;;;;;;;22.67;64.27;97897.59;4471837;32;20465;-81
2023/05/24 04:37:16;;;;;;;16.58;10.13;;;;;;;21.24;69.80;97903.66;4472223;32;20101;-80
2023/05/24 04:39:44;;;;;;;14.20;9.00;;;;;;;22.26;65.69;97904.09;4471638;32;20089;-81
2023/05/24 04:42:11;;;;;;;15.05;8.80;;;;;;;22.31;64.05;97907.13;4472203;32;20077;-80
2023/05/24 04:44:41;;;;;;;17.77;10.27;;;;;;;21.87;66.20;97902.31;4472077;32;20137;-80
2023/05/24 04:47:09;;;;;;;17.77;10.40;;;;;;;22.73;62.61;97905.72;4471871;32;20106;-81
2023/05/24 04:49:36;;;;;;;15.85;9.88;;;;;;;22.67;63.00;97911.59;4472003;32;20107;-80
2023/05/24 04:52:04;;;;;;;17.90;10.23;;;;;;;22.13;65.44;97910.50;4471980;32;20149;-80
2023/05/24 04:54:32;;;;;;;16.23;9.52;;;;;;;21.76;64.80;97910.34;4471805;32;20166;-81
2023/05/24 04:56:59;;;;;;;15.88;9.38;;;;;;;21.47;66.58;97917.38;4458050;32;20183;-80
2023/05/24 04:59:26;;;;;;;13.68;8.75;;;;;;;21.14;67.74;97918.53;4471856;32;20157;-80
2023/05/24 05:01:53;;;;;;;13.73;8.30;;;;;;;20.96;68.38;97921.84;4471778;32;20145;-81
2023/05/24 05:04:20;;;;;;;14.13;8.10;;;;;;;20.66;69.44;97922.69;4471973;32;20111;-80
2023/05/24 05:06:47;;;;;;;12.15;6.82;;;;;;;20.51;69.46;97916.94;4470782;32;20123;-80
2023/05/24 05:09:15;;;;;;;13.15;7.22;;;;;;;20.60;68.39;97925.81;4471472;32;20088;-80
2023/05/24 05:11:42;;;;;;;12.52;7.35;;;;;;;20.54;68.16;97921.13;4472148;32;20111;-80
2023/05/24 05:14:09;;;;;;;11.85;6.93;;;;;;;20.39;69.41;97925.00;4471754;32;20137;-80
2023/05/24 05:16:37;;;;;;;11.82;6.57;;;;;;;20.40;68.71;97922.22;4471466;32;20101;-81
2023/05/24 05:19:04;;;;;;;11.65;6.55;;;;;;;20.58;67.13;97934.78;4471819;32;20417;-80
2023/05/24 05:21:31;;;;;;;10.90;5.78;;;;;;;20.10;69.54;97927.47;4471948;32;20108;-80
2023/05/24 05:23:59;;;;;;;11.02;5.62;;;;;;;20.92;65.50;97937.94;4471371;32;20137;-81
2023/05/24 05:26:26;;;;;;;11.27;5.20;;;;;;;21.20;63.37;97925.91;4457871;32;20139;-80
2023/05/24 05:28:53;;;;;;;11.38;4.87;;;;;;;21.09;64.26;97946.03;4471347;32;20167;-80
2023/05/24 05:31:21;;;;;;;8.60;4.00;;;;;;;22.17;59.49;97942.56;4471833;32;20095;-80
2023/05/24 05:33:48;;;;;;;9.50;4.28;;;;;;;22.70;56.60;97942.84;4471708;32;20089;-80
2023/05/24 05:36:15;;;;;;;7.40;3.50;;;;;;;23.53;53.46;97954.22;4471579;32;20487;-81
2023/05/24 05:38:42;;;;;;;8.07;3.58;;;;;;;23.14;54.06;97948.34;4471828;32;20112;-80
2023/05/24 05:41:09;;;;;;;6.45;3.25;;;;;;;23.98;51.04;97953.34;4471874;32;20204;-80
2023/05/24 05:43:37;;;;;;;7.30;3.20;;;;;;;23.35;52.21;97953.34;4471411;32;20101;-81
2023/05/24 05:46:05;;;;;;;7.75;3.40;;;;;;;23.50;52.00;97962.44;4471710;32;20100;-80
2023/05/24 05:48:32;;;;;;;7.62;3.42;;;;;;;24.09;51.68;97958.37;4457425;32;20631;-80
2023/05/24 05:50:58;;;;;;;7.32;3.35;;;;;;;25.28;47.83;97964.72;4471372;32;20429;-81
2023/05/24 05:53:25;;;;;;;6.90;3.40;;;;;;;24.28;49.32;97948.63;4471500;32;20130;-81
2023/05/24 05:55:52;;;;;;;7.97;3.10;;;;;;;23.03;52.29;97959.06;4471566;32;20110;-81
2023/05/24 05:58:19;;;;;;;8.07;3.70;;;;;;;23.50;51.31;97957.16;4471157;32;20499;-80
2023/05/24 06:00:46;;;;;;;9.18;3.65;;;;;;;22.68;54.61;97954.50;4471966;32;20081;-81
2023/05/24 06:03:13;;;;;;;7.97;3.75;;;;;;;22.89;53.12;97962.19;4472068;32;20155;-81
2023/05/24 06:05:40;;;;;;;7.03;3.60;;;;;;;22.79;54.63;97965.66;4472087;32;20152;-81
2023/05/24 06:08:07;;;;;;;6.95;3.22;;;;;;;23.36;53.07;97968.19;4472258;32;20088;-81
2023/05/24 06:10:34;;;;;;;7.45;3.08;;;;;;;22.51;54.50;97962.12;4472232;32;20107;-87
2023/05/24 06:13:02;;;;;;;6.75;3.42;;;;;;;22.43;54.82;97967.25;4470831;32;20506;-87
2023/05/24 06:15:32;;;;;;;6.45;2.92;;;;;;;22.04;55.92;97963.84;4471359;32;20128;-82
2023/05/24 06:18:01;;;;;;;7.53;3.40;;;;;;;20.32;60.52;97956.13;4470559;32;20511;-79
2023/05/24 06:20:28;;;;;;;7.95;3.47;;;;;;;20.38;62.41;97949.53;4471344;32;20473;-78
2023/05/24 06:22:55;;;;;;;6.78;3.17;;;;;;;20.91;61.35;97952.03;4471279;32;20438;-78
2023/05/24 06:25:23;;;;;;;7.95;3.05;;;;;;;21.00;60.43;97962.56;4470944;32;20379;-77
2023/05/24 06:27:50;;;;;;;7.30;2.80;;;;;;;22.35;56.86;97956.66;4471343;32;20118;-78
2023/05/24 06:30:17;;;;;;;6.62;2.58;;;;;;;21.89;55.18;97952.91;4471018;32;20123;-78
2023/05/24 06:32:44;;;;;;;5.82;2.45;;;;;;;21.20;57.62;97963.44;4471020;32;20402;-78
2023/05/24 06:35:11;;;;;;;5.22;2.28;;;;;;;20.71;60.33;97965.06;4471079;32;20088;-78
2023/05/24 06:37:38;;;;;;;7.78;2.75;;;;;;;20.64;59.08;97950.81;4471001;32;20121;-78
2023/05/24 06:40:08;;;;;;;6.10;2.20;;;;;;;20.95;60.52;97964.75;4470600;32;20156;-78
2023/05/24 06:42:35;;;;;;;5.72;2.42;;;;;;;21.41;57.37;97971.28;4470954;32;20111;-78
2023/05/24 06:45:03;;;;;;;4.50;2.25;;;;;;;21.80;56.19;97982.66;4471095;32;20125;-78
2023/05/24 06:47:29;;;;;;;8.13;2.47;;;;;;;22.27;54.83;97981.97;4470597;32;20085;-78
2023/05/24 06:49:57;;;;;;;7.90;2.20;;;;;;;22.30;53.87;97974.63;4470929;32;20431;-78
2023/05/24 06:52:24;;;;;;;5.45;2.20;;;;;;;22.65;53.43;97978.41;4471299;32;20101;-78
2023/05/24 06:54:51;;;;;;;6.57;2.40;;;;;;;22.15;54.00;97990.00;4470533;32;20475;-87
2023/05/24 06:57:18;;;;;;;5.43;2.40;;;;;;;22.30;54.51;97990.41;4471375;32;20108;-87
2023/05/24 06:59:45;;;;;;;4.57;2.22;;;;;;;23.69;51.81;97990.44;4470771;32;20495;-88
2023/05/24 07:02:12;;;;;;;4.95;2.45;;;;;;;24.25;49.57;97984.06;4470454;32;20097;-88
2023/05/24 07:04:39;;;;;;;4.30;2.22;;;;;;;24.65;48.57;97990.59;4470454;32;20111;-86
2023/05/24 07:07:11;;;;;;;8.02;2.20;;;;;;;25.48;47.53;97989.03;4470202;32;20135;-88
2023/05/24 07:09:41;;;;;;;5.00;2.08;;;;;;;25.64;45.45;97994.38;4470191;32;20081;-88
2023/05/24 07:12:08;;;;;;;4.28;1.95;;;;;;;25.65;45.34;97992.56;4470469;32;20116;-88
2023/05/24 07:14:35;;;;;;;4.22;2.00;;;;;;;25.32;46.58;97995.13;4470450;32;20116;-87
2023/05/24 07:17:02;;;;;;;4.03;2.00;;;;;;;24.59;46.22;97981.53;4471585;32;20552;-87
2023/05/24 07:19:29;;;;;;;3.95;1.90;;;;;;;23.52;47.69;97992.06;4473083;32;20061;-86
2023/05/24 07:21:56;;;;;;;3.25;1.90;;;;;;;24.01;47.95;97995.19;4476099;32;20073;-88
2023/05/24 07:24:23;;;;;;;6.78;2.30;;;;;;;24.08;47.25;98001.53;4475209;32;20107;-88
2023/05/24 07:26:52;;;;;;;4.53;2.25;;;;;;;24.70;48.86;97999.72;4477665;32;20100;-88
2023/05/24 07:29:20;;;;;;;4.37;2.22;;;;;;;25.41;46.85;98001.22;4476647;32;20659;-89
2023/05/24 07:31:47;;;;;;;4.18;2.33;;;;;;;25.59;45.72;97999.31;4480225;32;20076;-89
2023/05/24 07:34:15;;;;;;;4.20;2.00;;;;;;;26.19;44.08;97999.09;4476375;32;20088;-89
2023/05/24 07:36:41;;;;;;;4.78;2.12;;;;;;;26.97;42.86;97995.87;4473096;32;20144;-88
2023/05/24 07:39:09;;;;;;;3.95;2.00;;;;;;;26.94;42.66;97992.75;4474641;32;20081;-87
2023/05/24 07:41:36;;;;;;;4.75;2.10;;;;;;;26.52;42.01;97997.28;4475796;32;20117;-89
2023/05/24 07:44:03;;;;;;;4.03;1.90;;;;;;;26.41;41.95;98007.41;4479152;32;20065;-88
2023/05/24 07:46:30;;;;;;;4.47;2.00;;;;;;;26.57;42.32;97994.13;4463721;32;20081;-88
2023/05/24 07:48:57;;;;;;;2.85;1.80;;;;;;;26.41;41.19;98000.28;4476601;32;20122;-88
2023/05/24 07:51:25;;;;;;;5.20;2.35;;;;;;;26.08;42.18;98003.91;4475926;32;20138;-87
2023/05/24 07:53:52;;;;;;;3.58;2.00;;;;;;;25.66;42.78;97999.50;4460624;32;20154;-89
2023/05/24 07:56:19;;;;;;;4.78;1.98;;;;;;;25.62;43.11;97998.97;4472352;32;20104;-88
2023/05/24 07:58:47;;;;;;;7.05;2.40;;;;;;;25.90;42.71;98009.31;4458187;32;20103;-88
2023/05/24 08:01:14;;;;;;;4.12;2.00;;;;;;;24.74;44.93;97994.94;4472370;32;20092;-88
2023/05/24 08:03:42;;;;;;;3.95;1.87;;;;;;;24.32;45.37;97998.28;4472401;32;20111;-89
2023/05/24 08:06:09;;;;;;;4.07;2.12;;;;;;;24.77;44.79;97997.28;4472352;32;20569;-88
2023/05/24 08:08:37;;;;;;;3.92;2.12;;;;;;;24.67;44.62;97999.19;4472139;32;20529;-87
2023/05/24 08:11:04;;;;;;;4.55;1.95;;;;;;;25.12;43.92;98006.09;4472298;32;20109;-87
2023/05/24 08:13:31;;;;;;;5.60;2.03;;;;;;;24.92;44.42;98010.72;4472221;32;20104;-87
2023/05/24 08:15:58;;;;;;;4.12;2.00;;;;;;;24.91;46.04;98009.06;4457926;32;20098;-88
2023/05/24 08:18:26;;;;;;;3.50;1.77;;;;;;;26.28;43.21;98013.16;4457872;32;20130;-88
2023/05/24 08:20:53;;;;;;;2.83;1.70;;;;;;;26.51;42.77;98019.47;4458246;32;20168;-87
2023/05/24 08:23:20;;;;;;;2.95;1.67;;;;;;;26.31;42.87;98018.09;4472039;32;20110;-87
2023/05/24 08:25:47;;;;;;;3.37;1.92;;;;;;;25.93;43.44;98014.25;4472146;32;20106;-87
2023/05/24 08:28:15;;;;;;;2.75;1.70;;;;;;;24.71;45.07;98008.47;4471978;32;20155;-87
2023/05/24 08:30:42;;;;;;;3.53;1.70;;;;;;;25.93;44.58;98012.44;4458385;32;20101;-87
2023/05/24 08:33:09;;;;;;;3.25;1.70;;;;;;;26.01;42.82;98013.47;4472150;32;20135;-87
2023/05/24 08:35:36;;;;;;;2.65;1.55;;;;;;;25.87;44.43;98013.13;4472249;32;20172;-88
2023/05/24 08:38:03;;;;;;;2.95;1.52;;;;;;;26.27;41.64;98008.03;4472256;32;20417;-87
2023/05/24 08:40:30;;;;;;;4.00;1.73;;;;;;;26.28;42.50;98015.81;4471527;32;20117;-88
2023/05/24 08:43:00;;;;;;;4.70;1.70;;;;;;;26.47;41.73;98017.28;4471916;32;20110;-89
2023/05/24 08:45:31;;;;;;;2.37;1.50;;;;;;;26.73;42.10;98009.16;4471655;32;20564;-85
2023/05/24 08:47:58;;;;;;;2.33;1.35;;;;;;;26.96;41.35;98022.50;4458086;32;20117;-86
2023/05/24 08:50:26;;;;;;;3.85;1.83;;;;;;;26.61;41.73;98006.06;4458013;32;20109;-88
2023/05/24 08:52:53;;;;;;;3.08;1.60;;;;;;;26.45;42.11;98025.41;4472334;32;20144;-87
2023/05/24 08:55:21;;;;;;;2.33;1.55;;;;;;;26.93;41.35;98021.03;4473636;32;20549;-89
2023/05/24 08:57:48;;;;;;;2.75;1.73;;;;;;;27.60;40.54;98018.81;4471932;32;20076;-88
2023/05/24 09:00:15;;;;;;;3.37;1.60;;;;;;;27.38;40.05;98023.06;4471470;32;20144;-88
2023/05/24 09:02:43;;;;;;;2.72;1.33;;;;;;;28.32;39.26;98031.00;4472074;32;20100;-88
2023/05/24 09:05:13;;;;;;;2.42;1.42;;;;;;;27.31;39.45;98042.47;4471792;32;20092;-88
2023/05/24 09:07:41;;;;;;;4.00;1.70;;;;;;;26.71;41.69;98038.47;4471722;32;20157;-86
2023/05/24 09:10:08;;;;;;;3.62;1.58;;;;;;;26.00;40.05;98044.34;4457652;32;20127;-88
2023/05/24 09:12:37;;;;;;;4.37;1.73;;;;;;;25.31;42.77;98037.53;4471977;32;20092;-88
2023/05/24 09:15:07;;;;;;;2.78;1.70;;;;;;;25.54;41.89;98040.41;4457375;32;20124;-89
2023/05/24 09:17:35;;;;;;;3.03;1.73;;;;;;;26.15;42.49;98042.72;4458010;32;20456;-89
2023/05/24 09:20:05;;;;;;;3.33;1.73;;;;;;;27.37;40.53;98042.59;4471509;32;20108;-88
2023/05/24 09:22:33;;;;;;;3.75;1.62;;;;;;;26.48;41.61;98048.91;4471684;32;20132;-88
2023/05/24 09:25:06;;;;;;;3.87;1.67;;;;;;;26.43;43.00;98050.37;4472336;32;20161;-89
2023/05/24 09:27:34;;;;;;;2.85;1.60;;;;;;;27.06;42.02;98047.00;4471484;32;20601;-88
2023/05/24 09:30:04;;;;;;;3.70;1.58;;;;;;;27.59;40.26;98043.66;4471548;32;20093;-89
2023/05/24 09:32:34;;;;;;;4.65;1.90;;;;;;;27.71;40.25;98038.84;4471897;32;20097;-88
2023/05/24 09:35:01;;;;;;;2.50;1.58;;;;;;;27.32;41.73;98050.22;4471395;32;20107;-88
2023/05/24 09:37:28;;;;;;;3.65;1.50;;;;;;;27.76;40.08;98055.06;4471721;32;20093;-87
2023/05/24 09:39:58;;;;;;;2.80;1.60;;;;;;;26.96;41.66;98054.28;4458604;32;20120;-88
2023/05/24 09:42:27;;;;;;;2.83;1.62;;;;;;;27.13;40.45;98063.06;4471496;32;20137;-87
2023/05/24 09:45:09;;;;;;;3.12;1.55;;;;;;;27.45;39.92;98057.66;4472402;32;20119;-88
2023/05/24 09:47:38;;;;;;;1.98;1.50;;;;;;;27.60;41.59;98058.56;4471713;32;20142;-89
2023/05/24 09:50:11;;;;;;;4.85;1.80;;;;;;;27.37;39.98;98053.19;4457152;32;20161;-88
2023/05/24 09:52:39;;;;;;;3.97;1.62;;;;;;;27.75;40.06;98066.63;4470910;32;20100;-87
2023/05/24 09:55:17;;;;;;;2.45;1.58;;;;;;;26.99;40.32;98061.88;4471293;32;20080;-83
2023/05/24 09:57:52;;;;;;;3.45;1.60;;;;;;;25.57;42.76;98064.69;4471596;32;20550;-86
2023/05/24 10:00:23;;;;;;;2.83;1.55;;;;;;;26.42;41.88;98062.78;4457334;32;20100;-82
2023/05/24 10:03:07;;;;;;;4.72;1.73;;;;;;;27.19;38.94;98072.97;4471045;32;20381;-83
2023/05/24 10:05:35;;;;;;;2.58;1.33;;;;;;;26.90;39.97;98078.78;4471535;32;20100;-84
2023/05/24 10:08:05;;;;;;;3.62;1.70;;;;;;;26.36;40.64;98076.62;4471117;32;20076;-86
2023/05/24 10:10:32;;;;;;;3.15;1.50;;;;;;;27.29;41.20;98071.78;4458191;32;20097;-85
2023/05/24 10:13:00;;;;;;;2.95;1.45;;;;;;;27.55;38.76;98081.31;4471545;32;20100;-85
2023/05/24 10:15:29;;;;;;;2.12;1.23;;;;;;;27.85;38.26;98074.38;4457266;32;20100;-85
2023/05/24 10:17:56;;;;;;;2.30;1.37;;;;;;;27.36;38.37;98075.41;4471427;32;20151;-85
2023/05/24 10:20:23;;;;;;;3.35;1.40;;;;;;;28.31;36.12;98071.81;4456986;32;20169;-85
2023/05/24 10:22:54;;;;;;;3.00;1.52;;;;;;;27.61;38.33;98072.66;4471291;32;20131;-85
2023/05/24 10:25:24;;;;;;;3.72;1.50;;;;;;;27.78;36.88;98068.13;4456972;32;20121;-85
2023/05/24 10:27:54;;;;;;;2.62;1.40;;;;;;;27.80;37.61;98080.22;4471387;32;20099;-85
2023/05/24 10:30:39;;;;;;;2.65;1.55;;;;;;;27.38;36.28;98073.41;4457041;32;20476;-85
2023/05/24 10:33:07;;;;;;;2.70;1.62;;;;;;;26.62;38.74;98080.97;4457578;32;20161;-85
2023/05/24 10:35:36;;;;;;;2.80;1.48;;;;;;;27.09;37.74;98070.50;4457052;32;20409;-85
2023/05/24 10:38:07;;;;;;;2.62;1.48;;;;;;;27.28;38.59;98070.13;4457228;32;20089;-85
2023/05/24 10:40:40;;;;;;;3.28;1.77;;;;;;;26.67;41.26;98079.47;4471024;32;20096;-85
2023/05/24 10:43:07;;;;;;;3.15;1.55;;;;;;;27.91;38.98;98068.38;4471314;32;20114;-85
2023/05/24 10:45:41;;;;;;;2.53;1.50;;;;;;;27.02;38.43;98080.13;4456902;32;20084;-85
2023/05/24 10:48:12;;;;;;;2.65;1.58;;;;;;;27.72;38.56;98068.81;4470941;32;20089;-85
2023/05/24 10:50:40;;;;;;;2.80;1.50;;;;;;;27.91;36.31;98071.88;4471347;32;20101;-85
2023/05/24 10:53:15;;;;;;;3.12;1.60;;;;;;;27.69;38.32;98067.34;4457103;32;20115;-85
2023/05/24 10:55:59;;;;;;;3.22;1.60;;;;;;;26.98;36.29;98074.28;4470955;32;20084;-85
2023/05/24 10:58:36;;;;;;;3.90;1.62;;;;;;;26.37;39.33;98069.53;4471490;32;20080;-87
2023/05/24 11:01:03;;;;;;;;;;;;;;;26.53;37.81;98064.25;4471650;32;20154;-84
2023/05/24 11:03:33;;;;;;;2.33;1.35;;;;;;;27.31;38.06;98064.47;4457174;32;19988;-82
2023/05/24 11:06:01;;;;;;;2.60;1.30;;;;;;;27.18;37.12;98058.06;4475767;32;20078;-82
2023/05/24 11:08:32;;;;;;;4.95;1.70;;;;;;;25.72;37.90;98067.56;4471901;32;20056;-84
2023/05/24 11:11:10;;;;;;;2.97;1.60;;;;;;;25.47;39.81;98056.06;4477352;32;20097;-82
2023/05/24 11:13:55;;;;;;;2.90;1.60;;;;;;;25.77;39.35;98065.28;4476045;32;20113;-85
2023/05/24 11:16:52;;;;;;;3.90;1.42;;;;;;;26.41;39.06;98061.12;4487177;32;20061;-83
2023/05/24 11:19:22;;;;;;;4.03;1.48;;;;;;;25.53;40.97;98050.16;4477432;32;20083;-86
2023/05/24 11:21:52;;;;;;;2.92;1.40;;;;;;;26.50;38.50;98056.66;4487389;32;20080;-84
2023/05/24 11:24:20;;;;;;;5.00;1.70;;;;;;;26.62;37.32;98052.69;4487122;32;20109;-84
2023/05/24 11:26:49;;;;;;;2.25;1.37;;;;;;;27.22;34.77;98046.97;4487119;32;20076;-85
2023/05/24 11:29:16;;;;;;;2.45;1.45;;;;;;;26.31;37.98;98049.03;4473815;32;20092;-83
2023/05/24 11:31:48;;;;;;;2.20;1.37;;;;;;;27.14;35.78;98051.47;4487011;32;20065;-84
2023/05/24 11:34:16;;;;;;;2.60;1.48;;;;;;;27.07;39.06;98049.50;4486786;32;20101;-83
2023/05/24 11:36:45;;;;;;;3.03;1.60;;;;;;;27.56;37.43;98045.84;4486884;32;20079;-84